Date,TemperatureHighF,TemperatureAvgF,TemperatureLowF,DewpointHighF,DewpointAvgF,DewpointLowF,HumidityHigh,HumidityAvg,HumidityLow,PressureMaxIn,PressureMinIn,WindSpeedMaxMPH,WindSpeedAvgMPH,GustSpeedMaxMPH,PrecipitationSumIn
2013-1-1,50,46,43,49,42,30,99,86,56,29.93,29.77,4,1,0,0.24
2013-1-2,49,44,39,48,43,39,99,97,88,30.04,29.76,5,1,0,0.33
2013-1-3,47,40,29,40,37,28,99,90,66,30.09,29.99,4,1,0,0.00
2013-1-4,50,38,24,33,26,22,99,69,33,30.13,30.00,6,1,0,0.00
2013-1-5,50,42,35,34,29,26,89,60,40,30.11,30.04,1,0,0,0.00
2013-1-6,51,42,35,40,38,33,99,86,58,30.06,29.85,3,0,0,0.01
2013-1-7,35,35,35,35,35,35,99,99,99,29.93,29.93,0,0,0,0.00
2013-1-8,46,37,35,42,36,35,99,98,84,30.20,29.93,1,0,0,0.00
2013-1-9,68,49,33,51,43,33,99,83,51,30.22,30.12,3,0,0,0.00
2013-1-10,47,45,41,46,43,40,99,96,86,30.24,30.18,2,0,0,0.00
2013-1-11,52,48,43,52,45,32,99,89,55,30.22,29.90,3,0,0,0.37
2013-1-12,69,57,51,64,56,51,99,96,79,29.92,29.85,2,0,0,0.01
2013-1-13,75,62,53,63,58,53,99,88,63,29.90,29.80,4,1,0,0.00
2013-1-14,70,62,54,64,60,54,99,93,78,29.92,29.83,4,1,0,0.00
2013-1-15,61,48,45,60,48,45,99,98,96,29.96,29.83,8,2,0,0.00
2013-1-16,50,47,45,50,47,45,99,99,99,29.83,29.74,4,1,0,0.14
2013-1-17,51,46,33,51,46,32,99,99,99,29.90,29.68,8,2,0,1.26
2013-1-18,46,36,28,35,30,22,99,81,40,30.31,29.92,7,1,0,0.41
2013-1-19,53,37,24,34,29,23,99,78,34,30.28,29.92,4,1,0,0.00
2013-1-20,65,45,31,38,34,30,99,72,32,29.92,29.74,4,1,0,0.00
2013-1-21,59,43,27,36,28,18,99,63,27,29.85,29.63,5,1,0,0.00
2013-1-22,41,35,31,20,11,1,48,36,21,30.01,29.73,6,2,0,0.00
2013-1-24,22,19,21,13,0,-100,68,59,64,29.93,29.92,2,-111,0,0.00
2013-1-25,29,25,18,28,18,5,99,78,39,29.94,29.66,4,1,0,0.06
2013-1-26,38,31,28,34,30,27,99,96,74,29.89,29.68,4,1,0,0.01
2013-2-9,53,40,28,28,20,-100,95,54,27,29.99,29.91,6,-22,0,0.00
2013-2-10,53,38,22,41,26,20,99,66,28,30.06,29.79,4,1,0,0.00
2013-2-11,63,55,44,61,54,41,99,94,85,29.79,29.57,6,2,0,0.05
2013-2-12,63,55,47,55,38,26,97,59,26,29.81,29.63,5,1,0,0.00
2013-2-13,48,46,44,48,45,38,99,96,76,29.70,29.43,3,1,0,0.26
2013-2-14,54,41,30,38,34,30,99,79,47,29.93,29.66,4,1,0,0.00
2013-2-15,62,43,28,40,32,28,99,72,32,29.95,29.79,5,1,0,0.00
2013-2-17,37,31,22,20,13,7,89,51,29,30.13,29.95,10,2,0,0.00
2013-2-18,52,32,16,23,18,15,97,66,23,30.26,30.14,5,1,0,0.01
2013-2-19,45,43,41,43,42,40,99,98,95,29.78,29.77,0,0,0,0.00
2013-2-20,53,41,29,40,23,14,99,56,21,29.98,29.78,7,1,0,0.00
2013-2-21,53,40,24,27,22,17,98,55,24,30.09,29.94,5,1,0,0.00
2013-2-22,42,37,32,37,33,21,99,87,43,30.18,29.96,4,1,0,0.43
2013-2-23,44,40,36,43,40,36,99,99,99,29.95,29.63,4,1,0,1.02
2013-2-24,63,49,35,48,40,32,99,75,35,29.88,29.61,5,1,0,0.17
2013-2-25,45,37,31,34,26,22,99,64,42,30.07,29.88,6,2,0,0.00
2013-2-26,57,45,34,57,43,27,99,92,67,29.98,29.39,7,2,0,1.06
2013-2-27,61,49,38,46,41,36,99,77,41,29.64,29.46,4,2,0,0.00
2013-2-28,50,41,31,41,32,26,99,76,40,29.74,29.56,3,1,0,0.00
2013-3-1,53,40,27,32,29,26,99,69,38,29.80,29.72,5,1,0,0.00
2013-3-2,50,39,27,33,26,21,97,64,38,29.82,29.70,5,1,0,0.00
2013-3-3,47,37,27,23,20,16,81,52,34,29.88,29.74,6,2,0,0.00
2013-3-4,50,37,27,25,17,13,83,48,24,30.02,29.88,6,1,0,0.00
2013-3-5,53,42,28,46,36,25,99,83,41,29.99,29.49,4,1,0,0.35
2013-3-6,46,42,37,42,34,28,99,75,52,29.93,29.40,10,3,0,0.00
2013-3-7,51,42,31,32,30,27,94,63,44,30.15,29.93,10,2,0,0.00
2013-3-8,54,43,31,29,26,24,85,55,31,30.19,30.05,7,2,0,0.00
2013-3-9,64,45,29,34,29,26,96,60,25,30.23,30.12,5,1,0,0.00
2013-3-10,67,47,29,36,29,21,99,59,18,30.21,30.09,6,1,0,0.00
2013-3-11,70,54,34,52,44,31,94,72,48,30.13,29.83,7,2,0,0.00
2013-3-12,73,62,51,63,55,36,99,79,47,29.82,29.62,8,3,0,0.39
2013-3-13,58,44,34,36,32,27,93,66,30,29.94,29.82,4,1,0,0.00
2013-3-18,-200,0,200,-100,-100,-100,0,0,100,0.00,40.00,0,-999,0,0.00
2013-4-3,63,53,44,33,18,-100,65,30,21,30.18,30.08,5,-46,0,0.00
2013-4-4,52,44,40,41,30,24,88,58,42,30.25,30.09,8,2,0,0.08
2013-4-5,64,54,43,48,45,42,98,76,51,29.90,29.77,5,2,0,0.00
2013-4-6,49,40,36,42,37,29,99,90,46,30.12,29.90,4,1,0,0.00
2013-4-7,73,65,54,47,45,42,71,51,35,30.02,30.00,6,2,0,0.00
2013-4-8,57,51,47,47,46,45,94,84,70,30.02,30.00,0,0,0,0.00
2013-4-10,76,75,74,61,60,60,62,60,57,29.84,29.83,5,3,0,0.00
2013-4-11,76,74,72,66,63,60,80,70,58,29.84,29.68,7,2,0,0.00
2013-4-12,72,71,68,66,65,64,89,81,78,29.71,29.62,5,4,0,0.01
2013-4-15,67,66,66,58,57,57,76,73,71,30.08,30.03,2,1,0,0.00
2013-4-16,62,61,60,58,57,57,89,88,85,30.11,30.10,0,0,0,0.00
2013-4-23,51,50,49,49,48,47,94,93,91,30.04,30.02,0,0,0,0.00
2013-4-24,80,63,44,56,52,42,99,71,42,30.05,29.85,5,1,0,0.00
2013-4-25,74,63,56,57,49,40,93,61,39,30.13,29.90,6,1,0,0.00
2013-6-6,77,71,70,73,66,-100,98,92,83,29.93,29.88,5,-25,0,1.04
2013-6-7,79,72,69,76,71,69,99,97,88,30.01,29.62,7,1,0,3.87
2013-6-8,87,75,68,73,70,66,99,86,60,30.20,30.01,4,0,0,0.13
2013-6-9,90,74,66,74,69,65,98,86,57,30.23,30.18,2,0,0,0.00
2013-6-10,82,76,71,79,74,70,97,93,87,30.07,29.95,7,1,0,0.84
2013-6-11,72,72,72,71,71,71,97,97,97,29.99,29.99,0,0,0,0.00
2013-6-13,94,94,93,70,69,69,46,45,44,29.64,29.62,3,2,0,0.00
2013-6-16,91,75,62,69,63,58,89,68,47,30.16,30.03,4,1,0,0.00
2013-7-2,81,74,72,76,73,71,98,95,84,30.17,30.02,3,0,0,0.78
2013-7-3,88,78,73,78,75,72,99,91,72,30.20,30.13,6,1,0,0.46
2013-7-4,90,79,73,77,74,70,99,85,54,30.20,30.09,4,1,0,0.31
2013-7-5,92,80,71,76,73,70,98,81,55,30.17,30.03,4,0,0,0.00
2013-7-6,91,80,73,76,73,71,96,80,56,30.12,29.99,4,0,0,0.00
2013-7-7,74,73,72,71,70,69,93,91,89,30.05,30.04,0,0,0,0.00